Time;durP1;ratioP1;P1;durP2;ratioP2;P2;SDS_P1;SDS_P2;PMS_P1;PMS_P2;Temp;Humidity;BMP_temperature;BMP_pressure;BME280_temperature;BME280_humidity;BME280_pressure;Samples;Min_cycle;Max_cycle;Signal;HPM_P1;HPM_P2
2022/03/28 00:01:55;;;;;;;24.73;9.10;;;11.80;62.10;;;;;;5043132;28;20193;-91
2022/03/28 00:04:21;;;;;;;23.60;8.52;;;11.60;62.40;;;;;;5036315;28;20423;-92
2022/03/28 00:06:47;;;;;;;25.00;8.95;;;11.60;62.70;;;;;;5043363;28;20178;-90
2022/03/28 00:09:13;;;;;;;24.03;9.37;;;11.50;62.80;;;;;;5043691;28;20192;-92
2022/03/28 00:11:39;;;;;;;22.63;8.60;;;11.30;63.10;;;;;;5027431;28;20443;-90
2022/03/28 00:14:05;;;;;;;20.83;8.83;;;11.30;63.50;;;;;;5043757;28;20534;-91
2022/03/28 00:16:31;;;;;;;17.88;9.35;;;11.20;63.60;;;;;;5043512;28;20416;-91
2022/03/28 00:18:57;;;;;;;14.38;7.97;;;11.20;63.90;;;;;;5043061;28;20249;-91
2022/03/28 00:21:24;;;;;;;27.35;9.73;;;11.20;64.10;;;;;;5037809;28;20189;-91
2022/03/28 00:23:50;;;;;;;22.27;8.95;;;11.40;63.90;;;;;;5043899;28;20174;-93
2022/03/28 00:26:16;;;;;;;16.40;8.65;;;11.40;63.70;;;;;;5043677;28;20162;-94
2022/03/28 00:28:41;;;;;;;16.93;8.77;;;11.40;63.40;;;;;;5031299;28;20220;-94
2022/03/28 00:31:07;;;;;;;17.90;8.90;;;11.30;63.70;;;;;;5024800;28;20186;-93
2022/03/28 00:33:33;;;;;;;18.53;7.63;;;11.20;64.10;;;;;;5024792;28;20479;-93
2022/03/28 00:35:59;;;;;;;25.57;8.33;;;11.10;64.40;;;;;;5025819;28;20178;-94
2022/03/28 00:38:25;;;;;;;25.93;9.60;;;11.00;64.70;;;;;;5023454;28;20425;-93
2022/03/28 00:40:51;;;;;;;30.40;9.52;;;11.20;64.90;;;;;;5028120;28;20182;-93
2022/03/28 00:43:16;;;;;;;26.90;9.03;;;11.30;64.60;;;;;;5024550;28;20209;-93
2022/03/28 00:45:43;;;;;;;15.73;8.53;;;11.20;64.40;;;;;;5025412;28;20482;-93
2022/03/28 00:48:11;;;;;;;21.67;8.63;;;11.20;64.40;;;;;;5027048;28;20254;-92
2022/03/28 00:50:37;;;;;;;18.70;8.57;;;11.10;64.70;;;;;;5027548;28;20182;-93
2022/03/28 00:53:06;;;;;;;23.77;8.00;;;11.00;64.80;;;;;;5031312;28;20220;-93
2022/03/28 00:55:33;;;;;;;18.15;8.05;;;11.20;64.80;;;;;;5029933;28;20678;-91
2022/03/28 00:57:58;;;;;;;27.77;9.95;;;11.20;64.70;;;;;;5025190;28;20228;-91
2022/03/28 01:00:24;;;;;;;25.67;10.00;;;11.10;64.80;;;;;;5027478;28;20186;-92
2022/03/28 01:02:50;;;;;;;21.87;9.40;;;10.90;65.10;;;;;;5029043;28;20197;-89
2022/03/28 01:05:18;;;;;;;18.10;9.50;;;11.10;65.20;;;;;;5045723;28;20421;-89
2022/03/28 01:11:09;;;;;;;23.95;9.18;;;11.10;65.20;;;;;;4981961;28;20366;-90
2022/03/28 01:13:37;;;;;;;21.10;9.48;;;11.10;65.10;;;;;;4965609;28;20646;-90
2022/03/28 01:16:04;;;;;;;19.10;9.65;;;11.10;65.20;;;;;;4965347;28;20243;-89
2022/03/28 01:18:30;;;;;;;23.48;9.52;;;11.00;65.20;;;;;;4971148;28;20176;-91
2022/03/28 01:20:58;;;;;;;25.98;9.23;;;10.90;65.40;;;;;;4973754;28;20188;-90
2022/03/28 01:23:24;;;;;;;26.95;9.20;;;11.00;65.50;;;;;;4971167;28;20204;-90
2022/03/28 01:25:51;;;;;;;25.95;9.25;;;11.00;65.50;;;;;;4986929;28;20185;-92
2022/03/28 01:28:18;;;;;;;17.90;7.63;;;11.00;65.60;;;;;;4945349;28;20191;-91
2022/03/28 01:30:44;;;;;;;27.08;10.88;;;11.00;65.70;;;;;;4959105;28;20656;-90
2022/03/28 01:33:09;;;;;;;23.13;8.67;;;11.00;65.60;;;;;;4974975;28;20212;-90
2022/03/28 01:35:37;;;;;;;23.00;9.00;;;10.80;65.90;;;;;;4966266;28;20727;-90
2022/03/28 01:38:08;;;;;;;16.35;8.68;;;10.70;66.50;;;;;;4976265;28;20241;-89
2022/03/28 01:40:36;;;;;;;21.83;8.40;;;10.60;66.90;;;;;;4976381;28;20215;-90
2022/03/28 01:43:02;;;;;;;14.18;8.00;;;10.50;67.40;;;;;;4959846;28;20200;-90
2022/03/28 01:45:28;;;;;;;26.77;9.95;;;10.70;67.30;;;;;;4977002;28;20196;-90
2022/03/28 01:47:54;;;;;;;17.27;9.00;;;10.60;67.20;;;;;;4998713;28;20186;-89
2022/03/28 01:50:20;;;;;;;23.77;8.90;;;10.50;67.50;;;;;;5035247;28;20504;-89
2022/03/28 01:52:45;;;;;;;18.58;7.95;;;10.80;67.40;;;;;;5035122;28;20540;-90
2022/03/28 01:55:12;;;;;;;30.47;8.80;;;10.80;67.00;;;;;;5019116;28;20717;-90
2022/03/28 01:57:39;;;;;;;23.77;9.38;;;10.50;67.20;;;;;;5037388;28;20481;-90
2022/03/28 02:00:16;;;;;;;15.48;8.68;;;10.40;67.80;;;;;;5036967;28;20201;-91
2022/03/28 02:02:43;;;;;;;26.50;10.88;;;10.50;68.00;;;;;;5036833;28;20598;-90
2022/03/28 02:05:16;;;;;;;19.13;8.38;;;10.60;67.80;;;;;;5037610;28;20737;-90
2022/03/28 02:07:47;;;;;;;21.73;8.32;;;10.50;68.00;;;;;;5020428;28;20625;-91
2022/03/28 02:10:15;;;;;;;18.92;8.95;;;10.50;68.20;;;;;;5023306;28;20181;-91
2022/03/28 02:12:41;;;;;;;20.52;9.07;;;10.60;68.20;;;;;;5032392;28;20205;-91
2022/03/28 02:15:10;;;;;;;28.48;9.73;;;10.60;67.90;;;;;;5040060;28;20304;-90
2022/03/28 02:17:39;;;;;;;26.10;9.45;;;10.50;68.20;;;;;;5040678;28;20178;-90
2022/03/28 02:20:08;;;;;;;21.52;9.40;;;10.40;68.30;;;;;;5056017;28;20208;-91
2022/03/28 02:22:35;;;;;;;23.45;10.52;;;10.40;68.50;;;;;;5037746;28;20178;-91
2022/03/28 02:25:01;;;;;;;18.67;8.73;;;10.40;68.70;;;;;;5040244;28;20196;-91
2022/03/28 02:27:27;;;;;;;22.58;9.07;;;10.40;68.90;;;;;;5032383;28;20174;-91
2022/03/28 02:29:53;;;;;;;24.73;8.47;;;10.40;68.80;;;;;;5020168;28;20600;-91
2022/03/28 02:32:19;;;;;;;27.03;10.10;;;10.20;69.00;;;;;;5019655;28;20488;-92
2022/03/28 02:34:45;;;;;;;27.48;9.10;;;10.20;69.20;;;;;;5037409;28;20540;-93
2022/03/28 02:37:11;;;;;;;27.70;9.50;;;10.30;69.50;;;;;;5021374;28;20240;-93
2022/03/28 02:39:37;;;;;;;26.27;9.97;;;10.30;69.50;;;;;;5021109;28;20174;-93
2022/03/28 02:42:04;;;;;;;23.23;8.60;;;10.10;69.80;;;;;;5037149;28;20466;-93
2022/03/28 02:44:30;;;;;;;28.55;9.55;;;10.20;69.80;;;;;;5041039;28;20226;-91
2022/03/28 02:46:56;;;;;;;26.98;8.25;;;10.10;69.90;;;;;;5040938;28;20185;-93
2022/03/28 02:51:50;;;;;;;34.33;9.48;;;10.20;70.10;;;;;;5029873;28;20205;-88
2022/03/28 02:54:15;;;;;;;22.83;8.00;;;10.10;70.40;;;;;;5032793;28;20556;-87
2022/03/28 02:56:41;;;;;;;20.70;9.13;;;10.00;70.50;;;;;;5009587;28;20645;-87
2022/03/28 02:59:07;;;;;;;26.27;9.80;;;9.90;70.60;;;;;;5003627;28;20265;-87
2022/03/28 03:01:33;;;;;;;32.83;8.75;;;9.80;71.00;;;;;;5009174;28;20197;-87
2022/03/28 03:03:59;;;;;;;21.23;8.87;;;9.90;71.30;;;;;;5014919;28;20192;-87
2022/03/28 03:06:25;;;;;;;20.57;9.00;;;9.90;71.30;;;;;;5015909;28;20512;-86
2022/03/28 03:08:50;;;;;;;19.70;7.63;;;10.00;71.00;;;;;;5025526;28;20250;-87
2022/03/28 03:11:40;;;;;;;17.20;9.00;;;10.00;71.00;;;;;;5014917;28;20741;-87
2022/03/28 03:14:06;;;;;;;18.90;8.75;;;10.00;71.10;;;;;;5015141;28;20241;-87
2022/03/28 03:16:32;;;;;;;27.27;8.68;;;9.90;71.10;;;;;;5011766;28;20545;-87
2022/03/28 03:18:58;;;;;;;19.77;8.05;;;10.00;71.30;;;;;;5000138;28;20186;-87
2022/03/28 03:21:23;;;;;;;19.27;8.40;;;9.90;71.20;;;;;;5001617;28;20199;-88
2022/03/28 03:23:49;;;;;;;19.77;7.50;;;9.90;71.50;;;;;;5015827;28;20213;-88
2022/03/28 03:26:15;;;;;;;24.23;9.53;;;9.90;71.70;;;;;;5014758;28;20197;-87
2022/03/28 03:28:41;;;;;;;25.73;8.00;;;9.90;71.80;;;;;;5009960;28;20179;-87
2022/03/28 03:31:07;;;;;;;31.30;9.10;;;9.90;71.70;;;;;;5007427;28;20542;-87
2022/03/28 03:33:33;;;;;;;27.00;8.70;;;10.00;71.40;;;;;;5014126;28;20455;-87
2022/03/28 03:36:00;;;;;;;18.90;8.82;;;10.00;71.90;;;;;;5015283;28;20178;-87
2022/03/28 03:38:26;;;;;;;26.98;8.18;;;9.90;71.70;;;;;;5004438;28;20206;-87
2022/03/28 03:40:53;;;;;;;29.65;8.75;;;9.90;71.80;;;;;;5014745;28;20197;-87
2022/03/28 03:43:18;;;;;;;27.63;9.75;;;9.90;71.70;;;;;;5014638;28;20646;-87
2022/03/28 03:45:45;;;;;;;23.70;8.20;;;9.90;71.80;;;;;;5033636;28;20185;-87
2022/03/28 03:48:11;;;;;;;24.88;9.98;;;9.80;71.90;;;;;;4998352;28;20178;-88
2022/03/28 03:50:37;;;;;;;28.90;9.47;;;9.60;73.00;;;;;;5006547;28;20218;-88
2022/03/28 03:53:03;;;;;;;18.73;7.53;;;9.70;72.50;;;;;;5014354;28;20421;-88
2022/03/28 03:55:28;;;;;;;31.93;9.17;;;9.70;72.60;;;;;;5014928;28;20213;-88
2022/03/28 03:57:54;;;;;;;29.77;9.13;;;9.70;72.60;;;;;;5032813;28;20630;-88
2022/03/28 04:00:22;;;;;;;28.97;9.70;;;9.70;72.80;;;;;;5016181;28;20618;-88
2022/03/28 04:02:49;;;;;;;17.65;7.60;;;9.60;72.90;;;;;;5015317;28;20242;-88
2022/03/28 04:05:15;;;;;;;23.98;9.30;;;9.70;73.00;;;;;;5032542;28;20190;-87
2022/03/28 04:07:41;;;;;;;23.20;10.23;;;9.60;73.00;;;;;;5035338;28;20668;-88
2022/03/28 04:10:07;;;;;;;26.00;8.80;;;9.50;73.40;;;;;;5064145;28;20439;-88
2022/03/28 04:12:33;;;;;;;34.40;10.30;;;9.50;73.30;;;;;;5015501;28;20197;-88
2022/03/28 04:15:00;;;;;;;17.33;8.10;;;9.50;73.50;;;;;;5018777;28;20747;-88
2022/03/28 04:17:28;;;;;;;26.25;10.15;;;9.50;73.70;;;;;;5016700;28;20183;-88
2022/03/28 04:20:01;;;;;;;19.65;8.63;;;9.30;73.90;;;;;;5035657;28;20550;-88
2022/03/28 04:22:27;;;;;;;21.38;9.95;;;9.30;74.10;;;;;;5018421;28;20192;-88
2022/03/28 04:24:52;;;;;;;23.23;8.87;;;9.40;74.00;;;;;;5017594;28;20721;-87
2022/03/28 04:27:18;;;;;;;25.93;9.43;;;9.30;74.10;;;;;;5018024;28;20425;-88
2022/03/28 04:29:44;;;;;;;24.53;10.77;;;9.30;74.40;;;;;;5009981;28;20206;-88
2022/03/28 04:32:10;;;;;;;22.63;9.07;;;9.30;74.40;;;;;;5012911;28;20265;-88
2022/03/28 04:34:35;;;;;;;21.73;9.03;;;9.30;74.40;;;;;;5002178;28;20453;-88
2022/03/28 04:37:01;;;;;;;28.93;9.53;;;9.30;74.50;;;;;;5036339;28;20170;-88
2022/03/28 04:39:27;;;;;;;18.53;8.83;;;9.40;74.30;;;;;;5011119;28;20178;-89
2022/03/28 04:41:52;;;;;;;24.67;9.20;;;9.30;74.30;;;;;;5009147;28;20185;-88
2022/03/28 04:44:18;;;;;;;22.03;9.40;;;9.40;74.30;;;;;;5017327;28;20240;-88
2022/03/28 04:46:44;;;;;;;23.45;9.05;;;9.40;74.30;;;;;;5020823;28;20425;-88
2022/03/28 04:49:13;;;;;;;24.30;9.17;;;9.60;73.90;;;;;;5036100;28;20231;-88
2022/03/28 04:51:39;;;;;;;22.75;9.55;;;9.60;74.30;;;;;;5019199;28;20209;-88
2022/03/28 04:54:04;;;;;;;20.17;9.77;;;9.60;73.30;;;;;;5016864;28;20681;-88
2022/03/28 04:56:30;;;;;;;22.43;9.43;;;9.50;73.30;;;;;;5024792;28;20181;-88
2022/03/28 04:58:56;;;;;;;28.57;10.20;;;9.50;73.30;;;;;;5018554;28;20177;-88
2022/03/28 05:01:22;;;;;;;19.00;9.13;;;9.50;73.30;;;;;;5018471;28;20212;-88
2022/03/28 05:03:47;;;;;;;22.03;10.10;;;9.40;73.50;;;;;;5035103;28;20207;-88
2022/03/28 05:06:13;;;;;;;30.13;10.53;;;9.40;73.70;;;;;;4999761;28;20554;-89
2022/03/28 05:08:41;;;;;;;18.17;9.30;;;9.40;73.50;;;;;;5007600;28;20963;-89
2022/03/28 05:11:10;;;;;;;27.52;10.75;;;9.30;73.70;;;;;;5018581;28;20460;-89
2022/03/28 05:13:36;;;;;;;37.40;9.93;;;9.40;73.90;;;;;;5016279;28;20224;-88
2022/03/28 05:16:02;;;;;;;29.60;10.70;;;9.40;73.60;;;;;;5054258;28;20178;-89
2022/03/28 05:18:28;;;;;;;28.17;9.85;;;9.30;73.80;;;;;;5022094;28;20170;-90
2022/03/28 05:20:53;;;;;;;22.37;9.27;;;9.20;73.80;;;;;;5018849;28;20201;-88
2022/03/28 05:23:23;;;;;;;23.37;9.70;;;9.20;74.10;;;;;;5017789;28;20436;-89
2022/03/28 05:25:49;;;;;;;42.20;12.82;;;9.10;74.50;;;;;;5001677;28;20185;-89
2022/03/28 05:28:15;;;;;;;29.17;11.17;;;9.10;74.60;;;;;;5035652;28;20182;-89
2022/03/28 05:30:40;;;;;;;19.50;9.77;;;9.20;74.60;;;;;;5017600;28;20197;-89
2022/03/28 05:33:07;;;;;;;27.30;10.83;;;9.30;74.50;;;;;;5033962;28;20754;-89
2022/03/28 05:35:34;;;;;;;27.30;11.15;;;9.50;74.10;;;;;;5010570;28;20980;-89
2022/03/28 05:38:00;;;;;;;29.13;10.82;;;9.40;73.80;;;;;;5014135;28;20710;-89
2022/03/28 05:40:26;;;;;;;29.23;10.60;;;9.40;73.90;;;;;;5016066;28;20284;-89
2022/03/28 05:42:58;;;;;;;27.63;9.50;;;9.30;73.80;;;;;;5035413;28;20421;-88
2022/03/28 05:45:25;;;;;;;25.92;10.20;;;9.20;74.10;;;;;;5017609;28;20437;-88
2022/03/28 05:47:53;;;;;;;32.95;12.20;;;9.20;74.30;;;;;;5016329;28;20186;-88
2022/03/28 05:50:18;;;;;;;30.33;10.85;;;9.30;74.10;;;;;;5026866;28;20214;-90
2022/03/28 05:52:44;;;;;;;32.40;10.97;;;9.40;74.00;;;;;;5012663;28;20857;-88
2022/03/28 05:55:11;;;;;;;25.57;10.27;;;9.60;74.00;;;;;;5006293;28;20460;-88
2022/03/28 05:57:37;;;;;;;32.97;10.35;;;9.90;73.50;;;;;;5035700;28;20425;-88
2022/03/28 06:00:05;;;;;;;22.92;10.23;;;10.00;72.80;;;;;;5017704;28;20206;-89
2022/03/28 06:02:32;;;;;;;28.13;9.88;;;10.20;72.00;;;;;;5003232;28;20178;-88
2022/03/28 06:04:58;;;;;;;21.38;9.60;;;10.00;71.10;;;;;;5029008;28;20182;-89
2022/03/28 06:07:24;;;;;;;22.40;9.70;;;9.80;71.50;;;;;;5016203;28;20185;-88
2022/03/28 06:09:49;;;;;;;27.20;9.97;;;10.10;71.70;;;;;;5016835;28;20208;-88
2022/03/28 06:12:15;;;;;;;18.10;8.87;;;10.60;70.60;;;;;;5008295;28;20182;-88
2022/03/28 06:14:41;;;;;;;23.03;9.20;;;10.80;69.30;;;;;;4995807;28;20202;-88
2022/03/28 06:17:07;;;;;;;25.67;10.27;;;10.70;68.70;;;;;;4998048;28;20192;-89
2022/03/28 06:19:33;;;;;;;23.90;9.30;;;11.10;68.20;;;;;;5000436;28;20420;-88
2022/03/28 06:21:58;;;;;;;31.53;10.70;;;11.20;67.60;;;;;;5017427;28;20793;-88
2022/03/28 06:24:24;;;;;;;15.67;9.97;;;11.80;66.90;;;;;;5016888;28;20444;-89
2022/03/28 06:26:50;;;;;;;22.67;10.03;;;11.90;64.80;;;;;;5035735;28;20529;-88
2022/03/28 06:29:16;;;;;;;19.07;9.33;;;11.90;64.20;;;;;;5035071;28;20230;-88
2022/03/28 06:31:41;;;;;;;24.83;9.73;;;12.20;63.80;;;;;;5000215;28;20201;-88
2022/03/28 06:34:08;;;;;;;28.87;8.93;;;12.20;62.70;;;;;;5014818;28;20456;-89
2022/03/28 06:36:35;;;;;;;19.70;8.88;;;12.50;62.80;;;;;;5016254;28;20269;-89
2022/03/28 06:39:02;;;;;;;15.40;8.65;;;12.90;61.60;;;;;;5017697;28;20201;-88
2022/03/28 06:41:28;;;;;;;16.63;9.02;;;13.40;60.50;;;;;;5016307;28;20194;-88
2022/03/28 06:43:54;;;;;;;23.50;8.87;;;13.40;59.50;;;;;;5001544;28;20819;-88
2022/03/28 06:46:22;;;;;;;30.67;10.87;;;13.00;59.50;;;;;;4998295;28;20187;-89
2022/03/28 06:48:50;;;;;;;22.13;9.50;;;13.00;60.10;;;;;;4998927;28;20189;-88
2022/03/28 06:51:15;;;;;;;21.13;9.18;;;12.90;60.30;;;;;;5016135;28;20264;-88
2022/03/28 06:53:42;;;;;;;33.30;9.03;;;12.60;60.70;;;;;;5014357;28;20194;-87
2022/03/28 06:56:08;;;;;;;32.08;9.68;;;12.50;61.40;;;;;;5015268;28;20178;-88
2022/03/28 06:58:34;;;;;;;34.53;11.00;;;12.40;61.60;;;;;;5017513;28;20342;-88
2022/03/28 07:01:00;;;;;;;25.80;10.93;;;12.30;62.00;;;;;;5020815;28;20200;-88
2022/03/28 07:03:26;;;;;;;33.90;11.73;;;12.40;61.80;;;;;;5015608;28;20186;-89
2022/03/28 07:05:52;;;;;;;27.83;11.50;;;12.40;61.70;;;;;;5016862;28;20201;-88
2022/03/28 07:08:18;;;;;;;32.07;10.63;;;12.20;62.20;;;;;;5016238;28;20205;-89
2022/03/28 07:10:44;;;;;;;23.95;10.60;;;12.20;62.90;;;;;;5015415;28;20529;-88
2022/03/28 07:13:10;;;;;;;28.47;10.87;;;12.10;62.90;;;;;;5021134;28;20254;-88
2022/03/28 07:15:35;;;;;;;26.50;12.83;;;12.10;63.10;;;;;;5018046;28;20264;-88
2022/03/28 07:18:07;;;;;;;23.13;9.83;;;12.20;63.10;;;;;;5015363;28;20182;-88
2022/03/28 07:20:33;;;;;;;24.63;10.75;;;12.20;63.10;;;;;;5032931;28;20437;-88
2022/03/28 07:22:59;;;;;;;26.90;10.88;;;12.00;63.30;;;;;;5015939;28;20178;-89
2022/03/28 07:25:26;;;;;;;24.33;10.57;;;11.70;64.20;;;;;;5016188;28;20272;-88
2022/03/28 07:27:52;;;;;;;20.23;10.52;;;11.70;64.70;;;;;;5016810;28;20514;-88
2022/03/28 07:30:20;;;;;;;30.23;11.48;;;11.80;64.90;;;;;;5018678;28;20267;-89
2022/03/28 07:32:46;;;;;;;26.23;12.23;;;12.00;64.40;;;;;;5034021;28;20190;-88
2022/03/28 07:35:14;;;;;;;32.10;12.30;;;12.10;64.30;;;;;;5014797;28;20228;-88
2022/03/28 07:37:41;;;;;;;25.38;11.65;;;12.10;64.10;;;;;;5015049;28;20178;-88
2022/03/28 07:40:08;;;;;;;20.25;12.52;;;12.10;64.20;;;;;;5014547;28;20197;-88
2022/03/28 07:42:34;;;;;;;27.27;12.02;;;12.20;64.10;;;;;;5015333;28;20181;-88
2022/03/28 07:45:02;;;;;;;38.75;12.02;;;12.20;64.10;;;;;;5032022;28;20178;-88
2022/03/28 07:47:28;;;;;;;23.92;11.20;;;12.20;63.90;;;;;;5002243;28;20484;-88
2022/03/28 07:49:55;;;;;;;35.17;11.97;;;12.20;64.00;;;;;;5036153;28;20228;-89
2022/03/28 07:52:21;;;;;;;28.35;13.80;;;12.20;64.30;;;;;;5017970;28;20416;-88
2022/03/28 07:54:48;;;;;;;30.23;13.35;;;12.20;64.50;;;;;;5036139;28;20244;-89
2022/03/28 07:57:15;;;;;;;28.30;12.80;;;12.10;64.80;;;;;;5018754;28;20552;-89
2022/03/28 07:59:42;;;;;;;33.80;14.82;;;12.10;65.20;;;;;;5038408;28;20704;-88
2022/03/28 08:02:08;;;;;;;22.73;12.80;;;12.20;65.50;;;;;;5038620;28;20177;-89
2022/03/28 08:04:34;;;;;;;40.95;14.43;;;12.10;65.40;;;;;;5018579;28;20212;-88
2022/03/28 08:07:03;;;;;;;23.77;13.83;;;12.20;65.60;;;;;;5018764;28;20666;-88
2022/03/28 08:09:29;;;;;;;29.73;13.00;;;12.40;66.10;;;;;;5038705;28;20408;-88
2022/03/28 08:11:56;;;;;;;31.20;15.47;;;12.50;65.10;;;;;;5020263;28;20286;-88
2022/03/28 08:14:22;;;;;;;31.60;15.65;;;12.60;64.50;;;;;;5020635;28;20545;-88
2022/03/28 08:16:49;;;;;;;37.30;16.10;;;12.70;64.40;;;;;;5018498;28;20190;-88
2022/03/28 08:19:15;;;;;;;31.40;14.55;;;12.70;63.90;;;;;;5019110;28;20851;-89
2022/03/28 08:21:41;;;;;;;39.03;14.88;;;12.70;63.70;;;;;;5024509;28;20201;-89
2022/03/28 08:24:07;;;;;;;26.00;14.00;;;12.70;63.80;;;;;;5033983;28;20178;-89
2022/03/28 08:26:34;;;;;;;24.57;14.43;;;12.80;64.00;;;;;;5025390;28;20253;-88
2022/03/28 08:29:00;;;;;;;32.10;14.85;;;13.00;63.70;;;;;;5025887;28;20177;-89
2022/03/28 08:31:28;;;;;;;34.23;17.40;;;13.00;63.20;;;;;;5019563;28;20214;-88
2022/03/28 08:33:54;;;;;;;41.55;17.25;;;13.10;63.10;;;;;;5018985;28;20284;-88
2022/03/28 08:36:19;;;;;;;30.75;16.05;;;12.90;63.00;;;;;;4998324;28;20214;-88
2022/03/28 08:38:45;;;;;;;28.10;14.80;;;13.00;63.00;;;;;;5001493;28;20187;-88
2022/03/28 08:41:14;;;;;;;34.97;16.50;;;13.10;62.80;;;;;;5016446;28;20437;-87
2022/03/28 08:43:41;;;;;;;26.10;15.38;;;13.40;62.40;;;;;;5014866;28;20269;-87
2022/03/28 08:46:09;;;;;;;27.08;15.98;;;13.40;61.80;;;;;;5017074;28;20182;-87
2022/03/28 08:48:40;;;;;;;34.88;17.27;;;13.40;61.90;;;;;;5014694;28;20186;-87
2022/03/28 08:51:10;;;;;;;40.25;18.08;;;13.40;62.00;;;;;;5015722;28;20217;-88
2022/03/28 08:53:36;;;;;;;36.05;19.02;;;13.60;61.60;;;;;;5019491;28;20178;-87
2022/03/28 08:56:03;;;;;;;35.10;17.88;;;13.50;61.10;;;;;;5028525;28;20605;-88
2022/03/28 08:58:29;;;;;;;28.65;16.80;;;13.30;61.40;;;;;;5018605;28;20183;-88
2022/03/28 09:00:55;;;;;;;38.80;19.07;;;13.60;61.20;;;;;;5037339;28;20224;-88
2022/03/28 09:03:35;;;;;;;30.60;16.70;;;13.70;60.60;;;;;;5019707;28;20499;-89
2022/03/28 09:06:21;;;;;;;180.57;39.53;;;13.90;60.10;;;;;;5045792;28;20177;-89
2022/03/28 09:08:47;;;;;;;35.60;17.70;;;13.80;60.20;;;;;;5050713;28;20177;-89
2022/03/28 09:11:20;;;;;;;36.97;18.27;;;14.10;60.20;;;;;;5016768;28;20197;-89
2022/03/28 09:13:47;;;;;;;42.75;16.45;;;14.20;59.90;;;;;;5015902;28;20198;-90
2022/03/28 09:16:20;;;;;;;31.00;16.88;;;14.10;60.20;;;;;;5017866;28;20198;-90
2022/03/28 09:18:45;;;;;;;35.30;20.48;;;14.10;60.40;;;;;;5000516;28;20190;-89
2022/03/28 09:21:14;;;;;;;35.77;19.40;;;14.10;59.90;;;;;;4998696;28;20290;-89
2022/03/28 09:23:44;;;;;;;44.28;19.33;;;14.10;59.80;;;;;;4998845;28;20183;-89
2022/03/28 09:26:16;;;;;;;33.55;15.93;;;13.90;59.20;;;;;;5045750;28;20181;-89
2022/03/28 09:28:49;;;;;;;43.00;19.88;;;14.20;59.70;;;;;;5056659;28;20189;-89
2022/03/28 09:31:35;;;;;;;36.03;20.13;;;14.40;59.60;;;;;;5056546;28;20293;-89
2022/03/28 09:34:02;;;;;;;32.53;18.98;;;14.20;58.50;;;;;;5039602;28;20232;-89
2022/03/28 09:36:36;;;;;;;42.50;19.30;;;14.00;58.50;;;;;;5041455;28;20173;-89
2022/03/28 09:39:04;;;;;;;36.58;20.70;;;14.10;58.60;;;;;;5040779;28;20245;-89
2022/03/28 09:41:31;;;;;;;40.22;20.80;;;14.20;58.50;;;;;;5040314;28;20288;-89
2022/03/28 09:43:57;;;;;;;37.28;20.13;;;14.50;58.40;;;;;;5057994;28;20187;-90
2022/03/28 09:46:28;;;;;;;42.28;20.52;;;14.80;57.20;;;;;;5039102;28;20189;-90
2022/03/28 09:48:54;;;;;;;48.50;23.70;;;14.90;56.50;;;;;;5058543;28;20618;-89
2022/03/28 09:51:23;;;;;;;33.50;19.75;;;15.00;56.50;;;;;;5039593;28;20227;-89
2022/03/28 09:53:49;;;;;;;42.90;21.95;;;15.00;56.60;;;;;;5043570;28;20208;-90
2022/03/28 09:56:15;;;;;;;36.17;21.15;;;14.80;56.20;;;;;;5029435;28;20264;-91
2022/03/28 09:58:47;;;;;;;38.97;21.30;;;14.80;55.70;;;;;;5022233;28;20738;-89
2022/03/28 10:01:18;;;;;;;33.90;19.25;;;14.80;56.40;;;;;;5049564;28;20494;-90
2022/03/28 10:03:46;;;;;;;38.35;18.60;;;14.80;56.20;;;;;;5034798;28;20245;-89
2022/03/28 10:06:12;;;;;;;41.60;21.00;;;14.70;56.20;;;;;;5024161;28;20220;-90
2022/03/28 10:08:38;;;;;;;39.03;19.83;;;14.70;55.70;;;;;;5024353;28;20178;-90
2022/03/28 10:11:06;;;;;;;38.08;20.98;;;14.60;55.10;;;;;;5040525;28;20639;-89
2022/03/28 10:13:32;;;;;;;42.92;20.85;;;14.70;56.20;;;;;;5021808;28;20182;-89
2022/03/28 10:15:59;;;;;;;27.95;17.70;;;14.80;55.40;;;;;;5022469;28;20201;-90
2022/03/28 10:18:30;;;;;;;43.95;24.10;;;14.80;56.40;;;;;;5024415;28;20668;-90
2022/03/28 10:20:58;;;;;;;38.90;22.73;;;14.90;55.70;;;;;;5041157;28;20198;-90
2022/03/28 10:23:29;;;;;;;31.00;16.70;;;14.90;55.00;;;;;;5024127;28;20193;-88
2022/03/28 10:25:57;;;;;;;31.33;18.80;;;14.90;55.10;;;;;;5027413;28;20200;-90
2022/03/28 10:28:22;;;;;;;42.22;22.58;;;15.00;54.60;;;;;;5032414;28;20182;-92
2022/03/28 10:30:48;;;;;;;32.97;18.47;;;15.00;53.90;;;;;;5033885;28;20186;-89
2022/03/28 10:33:19;;;;;;;39.17;20.07;;;15.00;53.50;;;;;;5033134;28;20178;-89
2022/03/28 10:36:21;;;;;;;43.30;20.52;;;14.90;52.80;;;;;;5021852;28;20483;-90
2022/03/28 10:38:51;;;;;;;26.52;16.50;;;15.10;54.20;;;;;;5021120;28;20252;-90
2022/03/28 10:41:19;;;;;;;26.75;16.98;;;15.20;53.70;;;;;;5019533;28;20194;-90
2022/03/28 10:43:46;;;;;;;20.77;14.95;;;15.20;52.80;;;;;;5018106;28;20187;-90
2022/03/28 10:46:13;;;;;;;32.70;16.33;;;15.10;51.90;;;;;;5019579;28;20174;-90
2022/03/28 10:48:43;;;;;;;36.85;17.52;;;15.20;51.80;;;;;;5025774;28;20209;-90
2022/03/28 10:51:09;;;;;;;28.60;15.20;;;15.30;53.20;;;;;;5033956;28;20223;-90
2022/03/28 10:53:41;;;;;;;26.97;13.30;;;15.50;53.60;;;;;;5018290;28;20725;-90
2022/03/28 10:56:15;;;;;;;21.75;11.85;;;15.50;52.90;;;;;;5040689;28;20155;-89
2022/03/28 10:58:52;;;;;;;32.72;17.40;;;15.60;53.10;;;;;;5020565;28;20198;-90
2022/03/28 11:01:24;;;;;;;37.15;20.25;;;15.70;52.10;;;;;;5019739;28;20193;-91
2022/03/28 11:04:16;;;;;;;31.42;19.02;;;15.70;50.80;;;;;;5053625;28;20174;-90
2022/03/28 11:07:04;;;;;;;27.30;15.98;;;15.80;50.60;;;;;;5020588;28;20166;-89
2022/03/28 11:09:43;;;;;;;36.92;21.23;;;15.80;50.60;;;;;;5001690;28;20189;-90
2022/03/28 11:12:12;;;;;;;30.98;17.13;;;15.90;50.50;;;;;;5034637;28;20181;-89
2022/03/28 11:14:49;;;;;;;32.05;15.88;;;16.00;52.50;;;;;;5017897;28;20288;-90
2022/03/28 11:17:25;;;;;;;22.10;12.02;;;16.20;50.00;;;;;;5036810;28;20169;-90
2022/03/28 11:20:12;;;;;;;28.25;13.75;;;16.20;51.60;;;;;;5019897;28;20197;-90
2022/03/28 11:22:47;;;;;;;23.58;12.23;;;16.20;48.60;;;;;;5023590;28;20221;-90
2022/03/28 11:25:44;;;;;;;16.05;10.00;;;16.30;48.30;;;;;;5023685;28;20272;-90
2022/03/28 11:28:22;;;;;;;20.40;10.80;;;16.20;48.30;;;;;;5022360;28;20173;-90
2022/03/28 11:31:03;;;;;;;19.73;9.57;;;16.30;47.00;;;;;;5022269;28;20204;-90
2022/03/28 11:33:33;;;;;;;23.02;10.10;;;16.30;46.40;;;;;;5023577;28;20220;-90
2022/03/28 11:36:06;;;;;;;13.63;8.50;;;16.40;44.50;;;;;;5022902;28;20174;-89
2022/03/28 11:38:45;;;;;;;17.10;9.15;;;16.40;45.20;;;;;;5022548;28;20177;-89
2022/03/28 11:41:14;;;;;;;24.02;9.65;;;16.40;46.00;;;;;;5040745;28;20207;-89
2022/03/28 11:43:46;;;;;;;23.17;10.68;;;16.40;45.50;;;;;;5040995;28;20552;-89
2022/03/28 11:46:26;;;;;;;24.88;9.02;;;16.30;43.10;;;;;;5022147;28;20236;-89
2022/03/28 11:49:05;;;;;;;30.13;13.20;;;16.40;46.50;;;;;;5022013;28;20272;-89
2022/03/28 11:51:34;;;;;;;25.38;13.23;;;16.50;45.20;;;;;;5021741;28;20245;-89
2022/03/28 11:54:16;;;;;;;21.33;11.23;;;16.50;44.50;;;;;;5005930;28;20293;-89
2022/03/28 11:59:28;;;;;;;25.35;13.90;;;16.60;44.20;;;;;;5052282;28;20170;-91
2022/03/28 12:01:56;;;;;;;26.15;12.23;;;16.80;42.40;;;;;;5026266;28;20272;-89
2022/03/28 12:04:21;;;;;;;17.75;9.82;;;16.80;44.80;;;;;;5024758;28;20264;-89
2022/03/28 12:06:47;;;;;;;18.00;9.83;;;16.80;43.30;;;;;;5021588;28;20209;-89
2022/03/28 12:09:16;;;;;;;18.30;8.90;;;16.90;44.70;;;;;;5040656;28;20169;-90
2022/03/28 12:11:48;;;;;;;18.92;10.15;;;16.80;44.20;;;;;;5043388;28;20220;-89
2022/03/28 12:14:15;;;;;;;23.38;9.70;;;16.60;43.30;;;;;;5038134;28;20197;-90
2022/03/28 12:16:55;;;;;;;19.30;9.30;;;16.80;42.90;;;;;;5024622;28;20236;-90
2022/03/28 12:19:25;;;;;;;16.38;10.02;;;16.70;43.00;;;;;;5023632;28;20176;-90
2022/03/28 12:21:54;;;;;;;22.48;10.93;;;16.70;43.00;;;;;;5007787;28;20184;-89
2022/03/28 12:24:22;;;;;;;21.30;11.00;;;16.70;43.60;;;;;;5040785;28;20204;-90
2022/03/28 12:26:50;;;;;;;21.27;11.57;;;16.80;44.60;;;;;;5023698;28;20178;-89
2022/03/28 12:29:16;;;;;;;20.80;9.90;;;17.00;44.20;;;;;;5026802;28;20192;-90
2022/03/28 12:31:44;;;;;;;15.95;9.27;;;16.90;45.50;;;;;;5031847;28;20236;-90
2022/03/28 12:34:12;;;;;;;20.73;11.00;;;17.10;47.40;;;;;;5025638;28;20228;-89
2022/03/28 12:36:38;;;;;;;23.33;12.00;;;17.40;46.40;;;;;;5026384;28;20177;-90
2022/03/28 12:39:07;;;;;;;18.65;13.40;;;17.20;44.70;;;;;;5021723;28;20198;-89
2022/03/28 12:41:40;;;;;;;18.75;12.02;;;17.20;45.30;;;;;;5019569;28;20296;-89
2022/03/28 12:44:23;;;;;;;20.60;10.93;;;17.20;44.80;;;;;;5031739;28;20264;-90
2022/03/28 12:46:49;;;;;;;29.40;12.93;;;17.30;44.40;;;;;;5037376;28;20208;-89